Time;durP1;ratioP1;P1;durP2;ratioP2;P2;SDS_P1;SDS_P2;PMS_P1;PMS_P2;Temp;Humidity;BMP_temperature;BMP_pressure;BME280_temperature;BME280_humidity;BME280_pressure;Samples;Min_cycle;Max_cycle;Signal;HPM_P1;HPM_P2
2023/09/19 00:17:55;;;;;;;11.40;7.72;;;;;;;25.17;47.72;99788.66;51438851;23;20025;-76
2023/09/19 00:37:55;;;;;;;9.77;7.57;;;;;;;24.90;48.00;99737.56;51467420;23;20021;-74
2023/09/19 00:57:56;;;;;;;8.07;7.05;;;;;;;25.03;48.32;99762.78;51454639;23;20625;-74
2023/09/19 01:18:16;;;;;;;8.52;7.15;;;;;;;25.12;48.21;99769.78;51469390;23;20024;-74
2023/09/19 01:38:17;;;;;;;9.50;7.15;;;;;;;24.94;48.53;99738.06;51440712;23;20080;-74
2023/09/19 01:58:27;;;;;;;8.77;7.70;;;;;;;25.11;48.49;99752.22;51460080;22;20323;-74
2023/09/19 02:18:28;;;;;;;8.13;7.25;;;;;;;24.90;48.59;99726.13;51463835;22;20020;-75
2023/09/19 02:38:28;;;;;;;9.95;8.18;;;;;;;24.69;48.70;99689.47;51451020;22;20009;-77
2023/09/19 02:58:30;;;;;;;10.57;8.15;;;;;;;24.81;49.00;99716.50;51446796;23;20071;-76
2023/09/19 03:18:31;;;;;;;9.18;7.57;;;;;;;24.36;48.96;99625.78;51458562;22;20402;-75
2023/09/19 03:38:34;;;;;;;10.63;8.27;;;;;;;24.98;49.33;99728.81;51442960;23;20072;-75
2023/09/19 03:58:38;;;;;;;9.25;7.85;;;;;;;24.78;48.87;99707.88;51442620;22;20017;-74
2023/09/19 04:18:39;;;;;;;9.52;7.57;;;;;;;25.08;48.67;99740.13;51444288;22;20017;-76
2023/09/19 04:38:40;;;;;;;15.82;9.50;;;;;;;25.07;49.53;99742.91;51457369;23;20040;-83
2023/09/19 04:58:40;;;;;;;17.98;9.48;;;;;;;25.33;50.30;99792.34;51439977;23;20071;-75
2023/09/19 05:18:43;;;;;;;4.43;1.90;;;;;;;23.60;51.73;99810.44;51437108;22;20030;-77
2023/09/19 05:38:44;;;;;;;2.30;0.80;;;;;;;23.57;52.10;99850.38;51434979;23;20001;-73
2023/09/19 05:58:44;;;;;;;4.22;0.95;;;;;;;23.52;51.53;99829.66;51444372;22;20009;-81
2023/09/19 06:18:45;;;;;;;0.65;0.60;;;;;;;22.80;52.09;99806.47;51477065;22;20020;-80
2023/09/19 06:38:45;;;;;;;1.10;0.82;;;;;;;24.32;49.71;99867.88;51473038;22;20027;-76
2023/09/19 06:58:46;;;;;;;2.78;1.13;;;;;;;24.36;49.96;99869.22;51467140;22;20104;-76
2023/09/19 07:18:46;;;;;;;4.50;1.38;;;;;;;24.33;50.21;99910.03;51487286;22;20012;-82
2023/09/19 07:38:46;;;;;;;14.70;1.65;;;;;;;24.52;50.96;99937.31;51483065;22;20096;-83
2023/09/19 07:58:47;;;;;;;10.88;0.98;;;;;;;23.19;54.80;99963.97;51524471;23;20021;-79
2023/09/19 08:18:48;;;;;;;7.85;1.75;;;;;;;23.29;55.68;100024.72;51470176;22;20115;-78
2023/09/19 08:38:49;;;;;;;4.20;1.05;;;;;;;23.02;55.53;100024.44;51467600;23;20013;-80
2023/09/19 08:58:54;;;;;;;5.50;1.40;;;;;;;23.93;52.50;100019.72;51421524;22;20084;-79
2023/09/19 09:18:55;;;;;;;22.92;1.88;;;;;;;24.37;52.22;100043.69;51464324;22;20028;-80
2023/09/19 09:38:55;;;;;;;3.53;1.58;;;;;;;24.70;52.31;100004.34;51470904;22;20020;-81
2023/09/19 09:58:59;;;;;;;4.45;1.30;;;;;;;24.68;53.25;100066.38;51475071;23;20515;-79
2023/09/19 10:19:02;;;;;;;4.17;1.40;;;;;;;24.83;53.33;100048.16;51476799;22;20048;-83
2023/09/19 10:39:06;;;;;;;3.93;1.70;;;;;;;24.84;53.46;100060.41;51479990;22;20021;-82
2023/09/19 10:59:15;;;;;;;6.50;1.60;;;;;;;24.33;53.37;99992.06;51501885;22;20249;-79
2023/09/19 11:19:16;;;;;;;4.65;1.80;;;;;;;25.00;52.37;100095.03;51462722;22;20016;-77
2023/09/19 11:39:27;;;;;;;2.80;1.35;;;;;;;24.64;50.57;100030.59;51483605;22;20123;-83
2023/09/19 11:59:30;;;;;;;17.00;1.80;;;;;;;24.53;50.49;100053.63;51468667;22;19997;-84
2023/09/19 12:19:31;;;;;;;29.67;3.23;;;;;;;24.39;48.43;100078.78;51501209;22;20080;-84
2023/09/19 12:39:32;;;;;;;7.57;1.10;;;;;;;24.91;49.10;100035.00;51506654;22;20322;-83
2023/09/19 12:59:32;;;;;;;31.00;3.08;;;;;;;24.43;47.35;100000.75;51503781;22;20035;-81
2023/09/19 13:19:35;;;;;;;3.40;1.25;;;;;;;25.25;47.67;100097.88;51490720;23;20027;-80
2023/09/19 13:39:36;;;;;;;6.83;1.63;;;;;;;25.10;47.61;100084.34;51518179;22;20063;-78
2023/09/19 13:59:36;;;;;;;7.50;1.83;;;;;;;25.21;46.87;100120.38;51511536;22;20801;-83
2023/09/19 14:19:37;;;;;;;6.25;1.80;;;;;;;25.32;47.02;100133.38;51469730;22;20030;-79
2023/09/19 14:39:40;;;;;;;3.90;1.35;;;;;;;25.05;47.93;100099.88;51463080;22;20098;-82
2023/09/19 14:59:45;;;;;;;2.50;1.48;;;;;;;25.54;47.16;100120.69;51506935;22;20028;-77
2023/09/19 15:19:47;;;;;;;2.20;1.55;;;;;;;25.39;47.22;100072.69;51453694;23;20040;-77
2023/09/19 15:39:48;;;;;;;2.10;1.05;;;;;;;25.10;44.77;100118.78;51463660;23;20036;-75
2023/09/19 15:59:49;;;;;;;4.35;1.10;;;;;;;25.08;45.20;100141.94;51441794;23;20021;-75
2023/09/19 16:19:50;;;;;;;3.63;1.30;;;;;;;24.85;46.54;100160.06;51437741;23;20124;-75
2023/09/19 16:39:51;;;;;;;2.58;1.27;;;;;;;24.53;46.92;100166.63;51434829;23;20119;-76
2023/09/19 16:59:52;;;;;;;3.45;1.60;;;;;;;23.52;50.00;100169.75;51439461;22;20021;-77
2023/09/19 17:19:53;;;;;;;2.55;1.52;;;;;;;23.43;49.95;100227.75;51427895;22;20020;-77
2023/09/19 17:39:54;;;;;;;5.57;2.08;;;;;;;24.01;49.23;100196.16;51452468;22;20025;-77
2023/09/19 17:59:54;;;;;;;3.88;1.50;;;;;;;24.80;49.28;100220.59;51428989;22;20025;-71
2023/09/19 18:19:55;;;;;;;4.03;2.13;;;;;;;24.59;49.50;100216.34;51412325;22;20029;-74
2023/09/19 18:39:56;;;;;;;5.60;2.10;;;;;;;24.97;49.44;100278.06;51446264;22;20866;-75
2023/09/19 19:00:03;;;;;;;;;;;;;;;24.85;48.77;100293.34;51427366;23;20048;-70
2023/09/19 19:20:07;;;;;;;8.40;2.05;;;;;;;24.36;50.32;100285.47;51423879;23;19947;-76
2023/09/19 19:40:08;;;;;;;6.40;2.78;;;;;;;24.51;48.86;100232.09;51430499;22;20016;-76
2023/09/19 20:00:11;;;;;;;6.00;2.83;;;;;;;24.94;49.14;100300.38;51388535;22;20365;-73
2023/09/19 20:20:14;;;;;;;7.22;2.85;;;;;;;25.01;49.04;100313.06;51409918;23;20104;-73
2023/09/19 20:40:20;;;;;;;5.33;2.80;;;;;;;24.57;51.48;100258.00;51414063;23;20717;-73
2023/09/19 21:00:23;;;;;;;5.20;3.13;;;;;;;25.02;51.61;100320.03;51420779;23;20021;-73
2023/09/19 21:20:26;;;;;;;3.70;2.80;;;;;;;23.99;51.32;100188.38;51417643;22;20040;-73
2023/09/19 21:40:26;;;;;;;6.07;2.80;;;;;;;24.83;51.42;100329.72;51426122;22;20469;-73
2023/09/19 22:00:39;;;;;;;4.88;3.13;;;;;;;24.77;50.85;100344.34;51395901;22;20048;-73
2023/09/19 22:20:52;;;;;;;4.53;3.25;;;;;;;24.88;51.46;100363.72;51415272;23;20031;-73
2023/09/19 22:40:53;;;;;;;3.70;3.03;;;;;;;24.82;51.12;100362.47;51423530;23;20023;-73
2023/09/19 23:00:53;;;;;;;5.38;3.03;;;;;;;24.81;50.98;100376.69;51414722;22;20245;-73
2023/09/19 23:21:03;;;;;;;4.35;2.95;;;;;;;24.58;50.60;100361.09;51424653;22;20466;-73
2023/09/19 23:41:10;;;;;;;4.13;2.97;;;;;;;24.83;50.96;100387.13;51418531;22;20087;-73
